Crater Lake, Oregon
Current Conditions -  °F | °C
As of 3:53 PM on Thursday 18 Dec 2014 (Local Time) from KLMT Reporting Station
Overcast Overcast  
Wind Chill: 36°   Ceiling: 5500
Heat Index: 43°   Visibility: 10mi
Dew Point: 33°   Wind: 14mph
Humidity: 68%   Direction: 170°S
Pressure: 30"   Gusts: NA
Location:  42.58°N, 121.86°W
Report Text: KLMT 182353Z 17012KT 10SM BKN055 OVC085 06/01 A3000 RMK AO2 SLP160 T00610006 10078 20028 56008
Loading
Personal Weather Stations






























Interactive Weather Map New forecast layout! Learn more

10-Day Weather Forecast

Advertisements
Track Severe Weather on mobile